Time;durP1;ratioP1;P1;durP2;ratioP2;P2;SDS_P1;SDS_P2;PMS_P1;PMS_P2;Temp;Humidity;BMP_temperature;BMP_pressure;BME280_temperature;BME280_humidity;BME280_pressure;Samples;Min_cycle;Max_cycle;Signal;HPM_P1;HPM_P2
2023/03/29 00:01:17;;;;;;;2.17;1.80;;;7.80;98.00;;;;;;5030879;28;20498;-68
2023/03/29 00:03:44;;;;;;;1.30;1.30;;;7.70;98.00;;;;;;5030886;28;20951;-68
2023/03/29 00:06:14;;;;;;;1.40;1.20;;;7.80;98.00;;;;;;5030672;28;20463;-68
2023/03/29 00:08:44;;;;;;;1.97;1.50;;;7.80;98.00;;;;;;5030787;28;20458;-68
2023/03/29 00:11:12;;;;;;;2.07;1.33;;;7.70;98.00;;;;;;5030724;28;20842;-68
2023/03/29 00:13:39;;;;;;;2.63;1.40;;;7.70;98.00;;;;;;5030937;28;20469;-68
2023/03/29 00:16:07;;;;;;;2.07;1.50;;;7.70;98.00;;;;;;5030709;28;20473;-68
2023/03/29 00:18:40;;;;;;;1.70;1.40;;;7.70;98.00;;;;;;5030033;28;20461;-68
2023/03/29 00:21:07;;;;;;;2.03;1.53;;;7.70;98.00;;;;;;5030001;28;20540;-68
2023/03/29 00:23:34;;;;;;;2.60;1.83;;;7.70;98.00;;;;;;5033282;28;20463;-69
2023/03/29 00:26:02;;;;;;;2.37;1.47;;;7.60;98.00;;;;;;5033227;28;20458;-68
2023/03/29 00:28:31;;;;;;;2.07;1.93;;;7.70;98.00;;;;;;5033143;28;20455;-69
2023/03/29 00:31:05;;;;;;;1.60;1.40;;;7.60;98.00;;;;;;5033236;28;20458;-68
2023/03/29 00:33:32;;;;;;;2.10;1.50;;;7.70;98.00;;;;;;5032837;28;20457;-67
2023/03/29 00:36:02;;;;;;;3.00;1.70;;;7.80;98.00;;;;;;5032893;28;20466;-68
2023/03/29 00:38:29;;;;;;;2.97;1.77;;;7.70;98.00;;;;;;5033192;28;20699;-68
2023/03/29 00:40:57;;;;;;;2.30;1.40;;;7.70;98.00;;;;;;5032988;28;20496;-68
2023/03/29 00:43:24;;;;;;;2.83;1.83;;;7.70;98.00;;;;;;5033113;28;20959;-68
2023/03/29 00:45:51;;;;;;;3.07;1.90;;;7.60;98.00;;;;;;5033068;28;20485;-68
2023/03/29 00:48:23;;;;;;;2.13;1.30;;;7.60;98.00;;;;;;5032758;28;20464;-68
2023/03/29 00:50:54;;;;;;;2.47;1.73;;;7.60;98.00;;;;;;5032622;28;21040;-68
2023/03/29 00:53:27;;;;;;;2.60;1.70;;;7.60;98.00;;;;;;5032784;28;20469;-68
2023/03/29 00:56:00;;;;;;;1.63;1.53;;;7.60;98.00;;;;;;5032777;28;20465;-69
2023/03/29 00:58:34;;;;;;;2.33;1.23;;;7.60;98.00;;;;;;5032631;28;20553;-67
2023/03/29 01:01:07;;;;;;;1.40;1.30;;;7.50;98.00;;;;;;4999152;28;20486;-68
2023/03/29 01:03:44;;;;;;;2.00;1.30;;;7.50;98.00;;;;;;5032629;28;20891;-68
2023/03/29 01:06:14;;;;;;;2.20;1.50;;;7.50;98.00;;;;;;5016040;28;20541;-68
2023/03/29 01:08:48;;;;;;;2.67;1.57;;;7.40;98.00;;;;;;5032561;28;20508;-68
2023/03/29 01:11:18;;;;;;;1.93;1.20;;;7.30;98.00;;;;;;5032799;28;20524;-68
2023/03/29 01:13:53;;;;;;;2.30;1.80;;;7.30;98.00;;;;;;5032794;28;20460;-68
2023/03/29 01:16:21;;;;;;;2.67;1.40;;;7.40;98.00;;;;;;4990063;28;1207862;-68
2023/03/29 01:18:49;;;;;;;2.13;1.50;;;7.30;98.00;;;;;;5033263;28;20237;-68
2023/03/29 01:21:22;;;;;;;4.20;1.73;;;7.40;98.00;;;;;;5033227;28;20486;-68
2023/03/29 01:24:25;;;;;;;1.83;1.40;;;7.30;98.00;;;;;;5033680;28;20939;-68
2023/03/29 01:27:01;;;;;;;2.10;1.70;;;7.30;98.00;;;;;;5033342;28;20535;-68
2023/03/29 01:29:34;;;;;;;2.17;1.60;;;7.30;98.00;;;;;;5033116;28;20877;-68
2023/03/29 01:32:07;;;;;;;1.73;1.70;;;7.20;98.00;;;;;;5033109;28;20964;-68
2023/03/29 01:34:39;;;;;;;2.00;1.60;;;7.20;98.00;;;;;;5032121;28;20465;-68
2023/03/29 01:37:15;;;;;;;1.57;1.30;;;7.10;98.00;;;;;;5033079;28;20461;-68
2023/03/29 01:39:43;;;;;;;1.70;1.30;;;7.10;98.00;;;;;;5032874;28;20492;-68
2023/03/29 01:42:30;;;;;;;2.47;1.30;;;7.10;98.00;;;;;;5033128;28;20876;-68
2023/03/29 01:45:07;;;;;;;1.50;1.30;;;7.10;98.00;;;;;;5032989;28;21025;-68
2023/03/29 01:47:45;;;;;;;3.73;1.60;;;7.20;98.00;;;;;;5032813;28;20973;-68
2023/03/29 01:50:17;;;;;;;2.10;1.67;;;7.20;98.00;;;;;;5032812;28;20526;-68
2023/03/29 01:52:50;;;;;;;10.23;1.40;;;7.20;98.00;;;;;;5032685;28;20465;-69
2023/03/29 01:55:23;;;;;;;2.37;1.43;;;7.20;98.00;;;;;;5032631;28;20951;-68
2023/03/29 01:57:53;;;;;;;4.20;1.47;;;7.30;98.00;;;;;;5032950;28;20485;-68
2023/03/29 02:00:26;;;;;;;3.90;2.07;;;7.30;98.00;;;;;;5032796;28;20490;-68
2023/03/29 02:02:58;;;;;;;2.17;1.40;;;7.30;98.00;;;;;;5033053;28;20980;-68
2023/03/29 02:05:29;;;;;;;3.40;1.70;;;7.30;98.00;;;;;;5032691;28;20887;-68
2023/03/29 02:08:00;;;;;;;3.40;2.00;;;7.20;98.00;;;;;;5032683;28;20459;-68
2023/03/29 02:10:28;;;;;;;2.60;1.50;;;7.20;98.00;;;;;;5032783;28;20462;-68
2023/03/29 02:12:55;;;;;;;3.70;1.87;;;7.20;98.00;;;;;;5032732;28;20956;-68
2023/03/29 02:15:24;;;;;;;4.37;1.70;;;7.10;98.00;;;;;;5014856;28;20472;-68
2023/03/29 02:17:51;;;;;;;3.40;1.60;;;7.20;98.00;;;;;;5032342;28;20472;-67
2023/03/29 02:20:22;;;;;;;2.23;1.60;;;7.10;98.00;;;;;;5032240;28;20998;-67
2023/03/29 02:22:56;;;;;;;2.20;1.60;;;7.10;98.00;;;;;;5032252;28;20463;-68
2023/03/29 02:25:24;;;;;;;2.17;1.43;;;7.20;98.00;;;;;;5032043;28;20470;-68
2023/03/29 02:27:53;;;;;;;2.70;2.07;;;7.40;98.00;;;;;;5032240;28;20553;-68
2023/03/29 02:30:21;;;;;;;1.27;1.13;;;7.30;98.00;;;;;;4998208;28;20903;-68
2023/03/29 02:32:58;;;;;;;2.60;1.90;;;7.20;98.00;;;;;;5032012;28;20988;-68
2023/03/29 02:35:35;;;;;;;2.23;1.50;;;7.20;98.00;;;;;;5031939;28;20453;-67
2023/03/29 02:38:04;;;;;;;2.07;1.77;;;7.20;98.00;;;;;;5032139;28;20454;-68
2023/03/29 02:40:33;;;;;;;1.97;1.43;;;7.10;98.00;;;;;;5031772;28;20568;-67
2023/03/29 02:43:02;;;;;;;2.63;1.63;;;7.00;98.00;;;;;;5031694;28;20465;-66
2023/03/29 02:45:30;;;;;;;3.30;1.80;;;6.90;98.00;;;;;;5031411;28;20457;-67
2023/03/29 02:48:03;;;;;;;2.37;1.80;;;6.90;98.00;;;;;;5031702;28;20482;-67
2023/03/29 02:50:34;;;;;;;1.60;1.50;;;6.80;98.00;;;;;;5031832;28;20519;-66
2023/03/29 02:53:09;;;;;;;1.93;1.57;;;6.90;98.00;;;;;;5031094;28;20487;-67
2023/03/29 02:55:39;;;;;;;2.70;1.53;;;7.00;98.00;;;;;;5031531;28;20527;-67
2023/03/29 02:58:07;;;;;;;2.10;1.50;;;7.00;98.00;;;;;;5014162;28;20538;-67
2023/03/29 03:00:38;;;;;;;2.43;1.40;;;7.00;98.00;;;;;;5031331;28;20529;-67
2023/03/29 03:03:09;;;;;;;3.77;1.73;;;7.00;98.00;;;;;;5031701;28;20461;-66
2023/03/29 03:05:37;;;;;;;1.77;1.37;;;6.90;98.00;;;;;;5031045;28;20469;-67
2023/03/29 03:08:06;;;;;;;2.50;1.50;;;6.80;98.00;;;;;;5031637;28;21018;-67
2023/03/29 03:10:33;;;;;;;4.53;1.70;;;6.70;98.00;;;;;;5031808;28;20455;-67
2023/03/29 03:13:01;;;;;;;2.43;1.60;;;6.80;98.00;;;;;;5031482;28;20469;-67
2023/03/29 03:15:29;;;;;;;4.63;1.60;;;6.70;98.00;;;;;;5031163;28;20472;-66
2023/03/29 03:17:57;;;;;;;2.63;1.60;;;6.60;98.00;;;;;;5031746;28;20469;-67
2023/03/29 03:20:25;;;;;;;2.47;1.60;;;6.50;98.00;;;;;;5031494;28;21189;-66
2023/03/29 03:22:52;;;;;;;2.17;1.60;;;6.50;98.00;;;;;;5031864;28;20810;-67
2023/03/29 03:25:21;;;;;;;1.83;1.50;;;6.40;98.00;;;;;;5031192;28;20465;-67
2023/03/29 03:27:49;;;;;;;1.70;1.40;;;6.40;98.00;;;;;;5031183;28;20953;-67
2023/03/29 03:30:20;;;;;;;4.97;2.10;;;6.50;98.00;;;;;;5014277;28;20458;-67
2023/03/29 03:32:48;;;;;;;3.83;1.63;;;6.60;98.00;;;;;;5032061;28;20462;-67
2023/03/29 03:35:16;;;;;;;2.90;1.50;;;6.50;98.00;;;;;;5031913;28;20460;-67
2023/03/29 03:37:48;;;;;;;1.80;1.30;;;6.70;98.00;;;;;;5032124;28;20546;-67
2023/03/29 03:40:15;;;;;;;1.63;1.37;;;6.80;98.00;;;;;;5031470;28;20493;-67
2023/03/29 03:42:42;;;;;;;1.80;1.50;;;6.90;98.00;;;;;;5030990;28;20461;-67
2023/03/29 03:45:11;;;;;;;1.70;1.50;;;6.90;98.00;;;;;;5031038;28;20503;-66
2023/03/29 03:47:38;;;;;;;2.07;1.70;;;7.10;98.00;;;;;;5031233;28;20466;-67
2023/03/29 03:50:07;;;;;;;1.50;1.43;;;7.20;98.00;;;;;;5013210;28;20458;-67
2023/03/29 03:52:35;;;;;;;2.73;1.40;;;7.00;98.00;;;;;;5013672;28;20537;-68
2023/03/29 03:55:05;;;;;;;2.83;1.50;;;6.90;98.00;;;;;;5030777;28;20456;-67
2023/03/29 03:57:36;;;;;;;2.53;1.50;;;7.00;98.00;;;;;;5016037;28;20469;-67
2023/03/29 04:00:10;;;;;;;2.23;1.57;;;7.00;98.00;;;;;;5034888;28;20496;-67
2023/03/29 04:02:38;;;;;;;1.60;1.20;;;6.80;98.00;;;;;;5034957;28;20460;-67
2023/03/29 04:05:06;;;;;;;2.10;1.33;;;6.90;98.00;;;;;;5034922;28;20460;-67
2023/03/29 04:07:33;;;;;;;1.60;1.30;;;6.80;98.00;;;;;;5034914;28;20459;-67
2023/03/29 04:10:00;;;;;;;2.53;1.77;;;6.80;98.00;;;;;;5035120;28;20466;-66
2023/03/29 04:12:28;;;;;;;3.57;1.90;;;6.70;98.00;;;;;;5017431;28;20466;-67
2023/03/29 04:14:56;;;;;;;1.50;1.40;;;6.60;98.00;;;;;;5035172;28;20462;-67
2023/03/29 04:17:23;;;;;;;2.50;1.83;;;6.60;98.00;;;;;;5034649;28;20508;-67
2023/03/29 04:19:50;;;;;;;2.43;1.67;;;6.60;98.00;;;;;;5034644;28;20830;-67
2023/03/29 04:22:17;;;;;;;2.87;1.40;;;6.70;98.00;;;;;;5034479;28;20487;-67
2023/03/29 04:24:44;;;;;;;1.47;1.43;;;6.90;98.00;;;;;;5034352;28;20461;-67
2023/03/29 04:27:11;;;;;;;2.13;1.80;;;6.80;98.00;;;;;;5034379;28;20478;-67
2023/03/29 04:29:40;;;;;;;2.23;1.43;;;6.80;98.00;;;;;;5034302;28;20473;-66
2023/03/29 04:32:07;;;;;;;2.23;1.50;;;6.80;98.00;;;;;;5034336;28;20480;-67
2023/03/29 04:34:35;;;;;;;2.40;1.40;;;6.90;98.00;;;;;;5033983;28;20520;-67
2023/03/29 04:37:02;;;;;;;4.50;1.77;;;7.10;98.00;;;;;;5016891;28;20461;-67
2023/03/29 04:39:36;;;;;;;2.03;1.40;;;7.00;98.00;;;;;;5034149;28;20515;-67
2023/03/29 04:42:04;;;;;;;2.27;1.40;;;7.00;98.00;;;;;;5034081;28;20484;-67
2023/03/29 04:44:33;;;;;;;2.93;1.40;;;6.90;98.00;;;;;;5034002;28;20985;-67
2023/03/29 04:47:02;;;;;;;1.70;1.50;;;7.00;98.00;;;;;;5034082;28;20964;-67
2023/03/29 04:49:29;;;;;;;2.07;1.47;;;7.00;98.00;;;;;;5033852;28;20450;-67
2023/03/29 04:51:56;;;;;;;1.97;1.47;;;6.90;98.00;;;;;;5016695;28;20831;-67
2023/03/29 04:54:24;;;;;;;3.10;1.67;;;6.90;98.00;;;;;;5033892;28;20461;-67
2023/03/29 04:56:52;;;;;;;2.07;1.30;;;6.80;98.00;;;;;;5016524;28;20461;-66
2023/03/29 04:59:19;;;;;;;2.53;1.90;;;6.70;98.00;;;;;;5016556;28;20548;-67
2023/03/29 05:01:46;;;;;;;1.80;1.33;;;6.70;98.00;;;;;;5033655;28;20493;-66
2023/03/29 05:04:17;;;;;;;1.80;1.43;;;6.70;98.00;;;;;;5016203;28;20466;-67
2023/03/29 05:06:44;;;;;;;1.60;1.23;;;6.70;98.00;;;;;;5033843;28;20450;-67
2023/03/29 05:09:11;;;;;;;2.77;1.70;;;6.70;98.00;;;;;;5015946;28;20621;-67
2023/03/29 05:11:38;;;;;;;1.50;1.30;;;6.80;98.00;;;;;;5033627;28;20620;-67
2023/03/29 05:14:08;;;;;;;2.30;1.50;;;6.90;98.00;;;;;;5033641;28;20469;-66
2023/03/29 05:16:36;;;;;;;1.50;1.40;;;6.90;98.00;;;;;;5016191;28;20475;-67
2023/03/29 05:19:04;;;;;;;3.27;1.80;;;6.90;98.00;;;;;;5033530;28;20504;-67
2023/03/29 05:21:33;;;;;;;2.60;1.57;;;6.90;98.00;;;;;;5033267;28;20490;-67
2023/03/29 05:24:00;;;;;;;1.90;1.40;;;7.00;98.00;;;;;;5033463;28;20637;-67
2023/03/29 05:26:28;;;;;;;3.07;1.97;;;7.10;98.00;;;;;;5033188;28;20462;-68
2023/03/29 05:28:56;;;;;;;1.80;1.50;;;7.00;98.00;;;;;;5033246;28;20463;-67
2023/03/29 05:31:23;;;;;;;2.80;1.63;;;7.00;98.00;;;;;;5033176;28;20462;-67
2023/03/29 05:33:51;;;;;;;1.83;1.50;;;7.00;98.00;;;;;;5033513;28;20861;-67
2023/03/29 05:36:19;;;;;;;2.60;1.60;;;6.90;98.00;;;;;;5033239;28;20560;-67
2023/03/29 05:38:48;;;;;;;2.47;1.73;;;7.00;98.00;;;;;;5033058;28;20940;-67
2023/03/29 05:41:16;;;;;;;2.83;1.93;;;7.30;98.00;;;;;;5032873;28;21054;-67
2023/03/29 05:43:44;;;;;;;3.03;1.60;;;7.30;98.00;;;;;;5032974;28;20883;-67
2023/03/29 05:46:12;;;;;;;1.97;1.60;;;7.40;98.00;;;;;;5032974;28;20644;-67
2023/03/29 05:48:39;;;;;;;1.40;1.20;;;7.40;98.00;;;;;;5032955;28;20733;-67
2023/03/29 05:51:07;;;;;;;4.00;1.80;;;7.20;98.00;;;;;;5033152;28;20464;-67
2023/03/29 05:53:36;;;;;;;2.20;1.50;;;7.20;98.00;;;;;;5015905;28;20444;-67
2023/03/29 05:56:07;;;;;;;1.87;1.40;;;7.20;98.00;;;;;;5032891;28;21020;-67
2023/03/29 05:58:37;;;;;;;3.97;1.93;;;7.20;98.00;;;;;;5032436;28;20465;-67
2023/03/29 06:01:05;;;;;;;1.37;1.33;;;7.20;98.00;;;;;;5032654;28;20450;-66
2023/03/29 06:03:33;;;;;;;1.97;1.53;;;7.20;98.00;;;;;;5032760;28;20453;-64
2023/03/29 06:06:03;;;;;;;2.60;1.70;;;7.30;98.00;;;;;;5031697;28;20472;-64
2023/03/29 06:08:30;;;;;;;5.13;2.30;;;7.40;98.00;;;;;;5032975;28;20508;-64
2023/03/29 06:10:59;;;;;;;2.07;1.40;;;7.50;98.00;;;;;;5032532;28;21036;-64
2023/03/29 06:13:28;;;;;;;2.13;1.60;;;7.70;98.00;;;;;;5032485;28;20976;-64
2023/03/29 06:15:55;;;;;;;3.23;1.60;;;7.50;98.00;;;;;;5032472;28;21031;-64
2023/03/29 06:18:23;;;;;;;1.60;1.40;;;7.60;98.00;;;;;;5032432;28;20469;-64
2023/03/29 06:20:51;;;;;;;2.17;1.70;;;7.70;98.00;;;;;;5031824;28;20491;-64
2023/03/29 06:23:19;;;;;;;3.40;1.83;;;7.80;98.00;;;;;;5032194;28;20464;-63
2023/03/29 06:25:46;;;;;;;2.47;1.70;;;7.90;98.00;;;;;;5031935;28;20466;-64
2023/03/29 06:28:14;;;;;;;2.10;1.80;;;7.90;98.00;;;;;;5032297;28;21006;-64
2023/03/29 06:30:44;;;;;;;2.70;1.93;;;7.80;98.00;;;;;;5032284;28;20469;-64
2023/03/29 06:33:13;;;;;;;4.60;2.37;;;7.90;98.00;;;;;;5032074;28;20544;-64
2023/03/29 06:35:42;;;;;;;2.33;1.57;;;8.10;98.00;;;;;;5032013;28;20563;-64
2023/03/29 06:38:10;;;;;;;2.33;1.70;;;8.10;98.00;;;;;;5031897;28;20501;-64
2023/03/29 06:40:38;;;;;;;4.20;2.20;;;8.10;98.00;;;;;;5031939;28;20798;-64
2023/03/29 06:43:05;;;;;;;3.13;2.00;;;8.00;98.00;;;;;;5032036;28;20640;-64
2023/03/29 06:45:34;;;;;;;5.50;2.20;;;8.10;98.00;;;;;;5014248;28;20465;-64
2023/03/29 06:48:05;;;;;;;3.83;2.40;;;8.10;98.00;;;;;;5014417;28;20458;-65
2023/03/29 06:50:32;;;;;;;2.87;1.57;;;8.10;98.00;;;;;;5031668;28;20461;-65
2023/03/29 06:53:00;;;;;;;4.60;2.90;;;8.30;98.00;;;;;;5031786;28;20559;-65
2023/03/29 06:55:28;;;;;;;4.63;2.23;;;8.30;98.00;;;;;;5031510;28;20446;-65
2023/03/29 06:57:55;;;;;;;2.70;2.50;;;8.10;98.00;;;;;;5031676;28;20524;-64
2023/03/29 07:00:27;;;;;;;3.00;1.60;;;8.10;98.00;;;;;;5031945;28;20870;-64
2023/03/29 07:02:54;;;;;;;4.20;2.40;;;8.20;98.00;;;;;;5031605;28;20500;-65
2023/03/29 07:05:24;;;;;;;4.50;3.00;;;8.20;98.00;;;;;;5031886;28;20472;-65
2023/03/29 07:07:55;;;;;;;2.57;2.20;;;8.30;98.00;;;;;;5031522;28;20542;-64
2023/03/29 07:10:26;;;;;;;11.73;2.97;;;8.30;98.00;;;;;;5031552;28;20500;-65
2023/03/29 07:12:54;;;;;;;2.73;2.13;;;8.30;98.00;;;;;;5031574;28;20833;-65
2023/03/29 07:15:22;;;;;;;4.80;2.00;;;8.40;98.00;;;;;;5031376;28;20470;-65
2023/03/29 07:17:49;;;;;;;2.77;1.80;;;8.50;98.00;;;;;;5031536;28;20463;-64
2023/03/29 07:20:16;;;;;;;2.13;1.80;;;8.60;98.00;;;;;;5031311;28;20482;-65
2023/03/29 07:22:47;;;;;;;4.30;2.10;;;8.70;98.00;;;;;;5033900;28;20486;-65
2023/03/29 07:25:15;;;;;;;2.13;1.50;;;8.90;98.00;;;;;;5029719;28;20503;-65
2023/03/29 07:27:43;;;;;;;5.07;2.73;;;9.20;98.00;;;;;;5030997;28;20453;-64
2023/03/29 07:30:12;;;;;;;6.37;2.23;;;9.30;98.00;;;;;;5030731;28;20508;-64
2023/03/29 07:32:40;;;;;;;4.43;2.03;;;9.40;98.00;;;;;;5030157;28;20476;-64
2023/03/29 07:35:08;;;;;;;5.57;2.40;;;9.50;98.00;;;;;;5031255;28;20462;-65
2023/03/29 07:37:38;;;;;;;6.50;2.37;;;9.60;98.00;;;;;;5030252;28;20460;-64
2023/03/29 07:40:11;;;;;;;3.87;2.30;;;9.70;98.00;;;;;;5031297;28;20474;-65
2023/03/29 07:42:38;;;;;;;9.00;3.40;;;9.90;98.00;;;;;;5031490;28;20502;-65
2023/03/29 07:45:07;;;;;;;6.80;3.30;;;10.00;98.00;;;;;;5031566;28;20486;-65
2023/03/29 07:47:34;;;;;;;6.10;2.80;;;10.00;98.00;;;;;;5016731;28;20823;-65
2023/03/29 07:50:03;;;;;;;7.03;2.90;;;9.90;98.00;;;;;;5030881;28;21132;-65
2023/03/29 07:52:31;;;;;;;4.77;2.70;;;9.90;98.00;;;;;;5030674;28;20968;-64
2023/03/29 07:54:58;;;;;;;5.33;2.60;;;10.00;98.00;;;;;;5030791;28;20460;-65
2023/03/29 07:57:28;;;;;;;4.80;2.53;;;10.00;98.00;;;;;;5030769;28;20497;-64
2023/03/29 07:59:55;;;;;;;3.10;2.10;;;9.90;98.00;;;;;;5030796;28;21022;-64
2023/03/29 08:02:23;;;;;;;8.57;3.30;;;9.70;98.00;;;;;;5030975;28;20490;-64
2023/03/29 08:04:50;;;;;;;2.50;2.10;;;9.70;98.00;;;;;;5013319;28;20520;-64
2023/03/29 08:07:19;;;;;;;2.43;1.87;;;9.80;98.00;;;;;;5031097;28;20465;-64
2023/03/29 08:09:47;;;;;;;2.80;2.00;;;10.00;98.00;;;;;;5030863;28;20472;-64
2023/03/29 08:12:14;;;;;;;3.53;2.30;;;10.20;98.00;;;;;;5030786;28;20461;-64
2023/03/29 08:14:43;;;;;;;3.97;1.83;;;10.20;98.00;;;;;;5030583;28;20956;-64
2023/03/29 08:17:11;;;;;;;2.43;2.00;;;10.20;98.00;;;;;;5030419;28;20530;-64
2023/03/29 08:19:38;;;;;;;4.27;1.90;;;10.30;98.00;;;;;;5030512;28;20512;-64
2023/03/29 08:22:06;;;;;;;3.37;1.93;;;10.30;98.00;;;;;;5030751;28;20527;-64
2023/03/29 08:24:52;;;;;;;3.77;2.10;;;10.30;98.00;;;;;;5030975;28;20457;-64
2023/03/29 08:27:20;;;;;;;3.10;2.10;;;10.40;98.00;;;;;;5030734;28;20779;-65
2023/03/29 08:29:52;;;;;;;2.87;1.80;;;10.60;98.00;;;;;;5030432;28;20945;-64
2023/03/29 08:32:19;;;;;;;2.33;1.90;;;10.60;98.00;;;;;;5013163;28;20869;-65
2023/03/29 08:34:49;;;;;;;2.53;1.83;;;10.60;98.00;;;;;;5030536;28;20565;-62
2023/03/29 08:37:16;;;;;;;2.73;1.80;;;10.70;98.00;;;;;;5012860;28;20467;-61
2023/03/29 08:39:44;;;;;;;4.37;1.87;;;10.90;98.00;;;;;;5013255;28;20469;-61
2023/03/29 08:42:38;;;;;;;1.80;1.50;;;11.00;98.00;;;;;;5030763;28;20488;-61
2023/03/29 08:45:14;;;;;;;2.47;1.50;;;11.20;98.00;;;;;;5033925;28;20475;-61
2023/03/29 08:47:48;;;;;;;1.93;1.33;;;11.30;98.00;;;;;;5016234;28;20834;-61
2023/03/29 08:50:16;;;;;;;3.23;1.90;;;11.30;98.00;;;;;;5033875;28;20513;-61
2023/03/29 08:52:47;;;;;;;1.73;1.60;;;11.40;98.00;;;;;;5033786;28;20949;-61
2023/03/29 08:55:27;;;;;;;3.80;1.80;;;11.40;98.00;;;;;;5033975;28;20459;-61
2023/03/29 08:57:55;;;;;;;3.83;2.03;;;11.50;98.00;;;;;;5016433;28;20464;-61
2023/03/29 09:00:34;;;;;;;4.27;2.10;;;11.60;98.00;;;;;;5033737;28;20460;-61
2023/03/29 09:03:08;;;;;;;4.43;1.93;;;11.60;98.00;;;;;;5033794;28;20486;-61
2023/03/29 09:05:40;;;;;;;6.00;2.30;;;11.50;98.00;;;;;;5034624;28;20462;-61
2023/03/29 09:08:15;;;;;;;3.00;2.10;;;11.30;98.00;;;;;;5033741;28;20494;-61
2023/03/29 09:10:46;;;;;;;3.23;2.00;;;11.30;98.00;;;;;;5034548;28;20542;-61
2023/03/29 09:13:25;;;;;;;2.93;1.57;;;11.30;98.00;;;;;;5033831;28;20868;-61
2023/03/29 09:16:02;;;;;;;3.87;1.70;;;11.30;98.00;;;;;;5033299;28;20459;-61
2023/03/29 09:18:35;;;;;;;2.17;1.43;;;11.50;98.00;;;;;;5033477;28;20896;-61
2023/03/29 09:21:08;;;;;;;2.00;1.63;;;11.50;98.00;;;;;;5016357;28;20511;-63
2023/03/29 09:23:55;;;;;;;2.97;1.77;;;11.70;98.00;;;;;;5033175;28;20498;-64
2023/03/29 09:26:31;;;;;;;2.33;1.83;;;11.70;98.00;;;;;;5033121;28;20599;-65
2023/03/29 09:29:06;;;;;;;2.07;1.43;;;11.90;98.00;;;;;;5033212;28;20460;-66
2023/03/29 09:31:37;;;;;;;4.33;1.90;;;12.20;98.00;;;;;;5032980;28;20489;-66
2023/03/29 09:34:13;;;;;;;2.40;1.70;;;12.30;98.00;;;;;;5033058;28;20454;-66
2023/03/29 09:36:49;;;;;;;3.23;1.90;;;12.40;98.00;;;;;;5032888;28;20492;-66
2023/03/29 09:39:17;;;;;;;4.50;1.70;;;12.60;98.00;;;;;;5016191;28;20883;-66
2023/03/29 09:41:51;;;;;;;2.00;1.80;;;12.70;98.00;;;;;;5032712;28;20483;-67
2023/03/29 09:44:22;;;;;;;1.77;1.63;;;12.90;98.00;;;;;;5032659;28;20487;-67
2023/03/29 09:46:55;;;;;;;3.00;1.47;;;13.10;98.00;;;;;;5032998;28;20481;-66
2023/03/29 09:49:26;;;;;;;1.93;1.50;;;13.10;98.00;;;;;;5030571;28;20464;-66
2023/03/29 09:51:58;;;;;;;2.47;1.50;;;13.20;98.00;;;;;;5012371;28;20949;-67
2023/03/29 09:54:25;;;;;;;1.90;1.50;;;13.30;97.70;;;;;;5030310;28;20462;-66
2023/03/29 09:56:52;;;;;;;2.00;1.60;;;13.50;97.60;;;;;;5032390;28;20454;-67
2023/03/29 09:59:19;;;;;;;1.90;1.53;;;13.60;97.40;;;;;;5032651;28;20468;-67
2023/03/29 10:01:47;;;;;;;2.40;1.40;;;13.60;96.80;;;;;;5032723;28;20852;-67
2023/03/29 10:04:15;;;;;;;4.13;1.73;;;13.60;96.50;;;;;;5032525;28;21027;-67
2023/03/29 10:06:45;;;;;;;1.97;1.40;;;13.80;97.90;;;;;;5032801;28;20457;-67
2023/03/29 10:09:17;;;;;;;3.13;1.70;;;14.00;98.00;;;;;;5029707;28;20462;-67
2023/03/29 10:11:49;;;;;;;2.60;1.50;;;14.10;96.20;;;;;;5028277;28;20453;-67
2023/03/29 10:14:20;;;;;;;1.97;1.37;;;14.30;95.90;;;;;;5012859;28;20463;-67
2023/03/29 10:16:54;;;;;;;2.90;1.63;;;14.40;93.90;;;;;;5012220;28;20460;-67
2023/03/29 10:19:26;;;;;;;2.77;1.60;;;14.20;93.40;;;;;;5012154;28;20466;-67
2023/03/29 10:22:00;;;;;;;2.93;2.20;;;14.20;95.60;;;;;;5015055;28;20531;-67
2023/03/29 10:24:28;;;;;;;2.00;1.60;;;14.40;97.20;;;;;;5015735;28;20493;-67
2023/03/29 10:27:00;;;;;;;1.63;1.47;;;14.60;97.10;;;;;;5019446;28;20834;-67
2023/03/29 10:29:35;;;;;;;3.10;1.73;;;14.80;97.70;;;;;;5015780;28;20448;-67
2023/03/29 10:32:02;;;;;;;2.10;1.70;;;14.80;97.90;;;;;;5001065;28;20450;-67
2023/03/29 10:34:31;;;;;;;2.27;1.40;;;14.90;95.50;;;;;;5022981;28;20507;-67
2023/03/29 10:37:00;;;;;;;2.03;1.63;;;14.90;94.30;;;;;;5019221;28;20450;-67
2023/03/29 10:39:32;;;;;;;2.67;1.60;;;14.80;92.30;;;;;;5019102;28;20957;-67
2023/03/29 10:42:00;;;;;;;9.03;2.20;;;14.90;95.20;;;;;;5025751;28;20478;-67
2023/03/29 10:44:31;;;;;;;1.90;1.57;;;14.90;91.70;;;;;;5029941;28;21014;-67
2023/03/29 10:47:14;;;;;;;2.27;1.97;;;14.80;94.10;;;;;;5028495;28;20481;-66
2023/03/29 10:49:46;;;;;;;3.30;1.50;;;15.00;92.60;;;;;;5013569;28;20826;-66
2023/03/29 10:52:15;;;;;;;1.90;1.50;;;14.90;91.20;;;;;;5031576;28;20546;-67
2023/03/29 10:54:42;;;;;;;2.43;1.80;;;14.80;91.50;;;;;;5031612;28;20461;-66
2023/03/29 10:57:15;;;;;;;1.87;1.60;;;14.80;93.10;;;;;;5031711;28;20454;-67
2023/03/29 10:59:52;;;;;;;2.90;1.77;;;14.90;92.20;;;;;;5232210;22;20511;-67
2023/03/29 11:02:46;;;;;;;2.33;1.63;;;15.10;92.30;;;;;;5031659;28;20466;-66
2023/03/29 11:05:23;;;;;;;1.93;1.40;;;15.30;92.20;;;;;;5031331;28;20458;-66
2023/03/29 11:08:07;;;;;;;4.77;1.67;;;15.30;93.50;;;;;;5031142;28;20461;-66
2023/03/29 11:10:43;;;;;;;2.43;1.50;;;15.20;92.60;;;;;;5030173;28;20554;-66
2023/03/29 11:13:16;;;;;;;1.93;1.50;;;15.10;92.50;;;;;;5031239;28;20462;-66
2023/03/29 11:15:56;;;;;;;2.37;1.77;;;15.10;93.00;;;;;;5031383;28;20465;-66
2023/03/29 11:18:44;;;;;;;2.10;1.60;;;15.20;93.30;;;;;;5030934;28;20468;-66
2023/03/29 11:21:26;;;;;;;2.53;1.90;;;15.20;93.30;;;;;;5028693;28;20473;-66
2023/03/29 11:24:09;;;;;;;3.13;1.70;;;15.20;91.70;;;;;;5033661;28;20848;-66
2023/03/29 11:26:44;;;;;;;2.80;2.00;;;15.20;92.80;;;;;;5031657;28;20538;-66
2023/03/29 11:29:16;;;;;;;3.63;1.60;;;15.40;91.30;;;;;;5031662;28;20947;-66
2023/03/29 11:31:56;;;;;;;2.23;1.77;;;15.60;91.60;;;;;;5034245;28;21171;-67
2023/03/29 11:34:32;;;;;;;2.23;1.57;;;15.60;89.10;;;;;;5030075;28;20451;-66
2023/03/29 11:37:09;;;;;;;2.20;1.60;;;15.70;89.90;;;;;;5030674;28;20450;-66
2023/03/29 11:39:46;;;;;;;3.07;1.77;;;15.80;91.00;;;;;;5032535;28;20461;-67
2023/03/29 11:42:18;;;;;;;6.63;1.80;;;16.00;90.40;;;;;;5038924;28;20463;-63
2023/03/29 11:44:48;;;;;;;4.90;1.93;;;15.90;89.20;;;;;;5048749;28;20539;-66
2023/03/29 11:47:18;;;;;;;2.00;1.40;;;15.80;90.50;;;;;;5050966;28;20473;-66
2023/03/29 11:49:56;;;;;;;3.37;2.00;;;15.90;91.90;;;;;;5051839;28;20457;-66
2023/03/29 11:52:29;;;;;;;2.60;1.80;;;16.00;92.80;;;;;;5051930;28;20466;-66
2023/03/29 11:55:02;;;;;;;2.67;1.80;;;16.20;91.20;;;;;;5051949;28;20446;-66
2023/03/29 11:57:34;;;;;;;3.10;2.07;;;16.30;91.50;;;;;;5051863;28;20536;-66
2023/03/29 12:00:05;;;;;;;3.23;2.13;;;16.50;89.10;;;;;;5050561;28;20465;-66
2023/03/29 12:02:36;;;;;;;1.80;1.57;;;16.60;91.70;;;;;;5051860;28;20495;-66
2023/03/29 12:05:11;;;;;;;2.90;1.80;;;16.60;87.90;;;;;;5051371;28;20567;-66
2023/03/29 12:07:46;;;;;;;2.67;1.93;;;16.60;89.00;;;;;;5051535;28;20456;-66
2023/03/29 12:10:19;;;;;;;2.30;1.67;;;16.70;90.10;;;;;;5051375;28;20453;-66
2023/03/29 12:12:52;;;;;;;2.07;1.50;;;16.70;90.20;;;;;;5051747;28;20453;-66
2023/03/29 12:15:23;;;;;;;2.47;1.80;;;16.70;91.60;;;;;;5051076;28;20473;-66
2023/03/29 12:18:01;;;;;;;2.57;1.77;;;16.70;89.50;;;;;;5052730;28;20454;-67
2023/03/29 12:20:32;;;;;;;2.43;1.70;;;16.60;89.60;;;;;;5053906;28;20823;-66
2023/03/29 12:23:01;;;;;;;1.93;1.70;;;16.60;89.70;;;;;;5055104;28;20819;-66
2023/03/29 12:25:34;;;;;;;1.77;1.57;;;16.60;89.60;;;;;;5055225;28;20511;-67
2023/03/29 12:28:13;;;;;;;3.43;2.20;;;16.70;90.60;;;;;;5055259;28;20519;-67
2023/03/29 12:30:54;;;;;;;1.90;1.50;;;16.70;88.40;;;;;;5055006;28;20461;-66
2023/03/29 12:33:55;;;;;;;2.10;1.63;;;16.90;89.10;;;;;;5055363;28;20450;-67
2023/03/29 12:36:43;;;;;;;3.43;1.80;;;16.70;88.60;;;;;;5039595;28;20470;-68
2023/03/29 12:39:16;;;;;;;3.03;2.00;;;16.90;90.60;;;;;;5055129;28;21001;-68
2023/03/29 12:41:47;;;;;;;2.40;1.60;;;17.00;90.00;;;;;;5054810;28;20803;-68
2023/03/29 12:44:16;;;;;;;1.83;1.63;;;17.10;88.90;;;;;;5054725;28;20489;-68
2023/03/29 12:46:47;;;;;;;2.63;1.70;;;17.10;88.30;;;;;;5054626;28;20461;-68
2023/03/29 12:49:26;;;;;;;4.00;1.87;;;17.10;88.50;;;;;;5054590;28;20461;-68
2023/03/29 12:51:58;;;;;;;2.00;1.60;;;17.10;89.00;;;;;;5055019;28;20528;-68
2023/03/29 12:54:31;;;;;;;2.50;1.40;;;17.30;88.90;;;;;;5054733;28;20504;-68
2023/03/29 12:57:01;;;;;;;2.57;1.90;;;17.50;87.00;;;;;;5054888;28;20523;-68
2023/03/29 12:59:37;;;;;;;2.87;1.90;;;17.60;86.20;;;;;;5054552;28;20462;-68
2023/03/29 13:02:27;;;;;;;3.90;1.90;;;17.80;87.40;;;;;;5054550;28;20843;-68
2023/03/29 13:04:55;;;;;;;3.40;1.90;;;17.90;87.70;;;;;;5054545;28;20581;-68
2023/03/29 13:07:44;;;;;;;2.20;1.60;;;17.80;85.60;;;;;;5054489;28;20540;-68
2023/03/29 13:10:31;;;;;;;5.10;2.10;;;17.60;86.80;;;;;;5054384;28;20501;-68
2023/03/29 13:13:14;;;;;;;1.73;1.30;;;17.60;88.70;;;;;;5054325;28;20468;-68